createdAt,value
2019-05-15T00:00:38.872Z,2.30
2019-05-15T00:03:09.040Z,1.87
2019-05-15T00:05:39.427Z,1.93
2019-05-15T00:08:09.857Z,1.90
2019-05-15T00:10:39.645Z,1.70
2019-05-15T00:13:09.584Z,2.33
2019-05-15T00:15:40.380Z,2.07
2019-05-15T00:18:10.587Z,2.63
2019-05-15T00:20:40.211Z,2.30
2019-05-15T00:23:09.680Z,2.50
2019-05-15T00:25:39.709Z,2.40
2019-05-15T00:28:09.810Z,2.70
2019-05-15T00:30:39.376Z,2.30
2019-05-15T00:33:09.338Z,2.50
2019-05-15T00:35:39.707Z,2.73
2019-05-15T00:38:09.618Z,2.30
2019-05-15T00:40:39.716Z,2.70
2019-05-15T00:43:09.846Z,2.63
2019-05-15T00:45:39.579Z,2.80
2019-05-15T00:48:09.142Z,2.57
2019-05-15T00:50:39.246Z,2.67
2019-05-15T00:53:09.613Z,2.53
2019-05-15T00:55:39.790Z,2.40
2019-05-15T00:58:09.280Z,2.70
2019-05-15T01:00:41.746Z,2.43
2019-05-15T01:03:11.762Z,2.40
2019-05-15T01:05:41.486Z,2.73
2019-05-15T01:08:11.073Z,2.83
2019-05-15T01:10:40.926Z,2.30
2019-05-15T01:13:10.752Z,2.23
2019-05-15T01:15:40.362Z,2.60
2019-05-15T01:18:10.079Z,2.70
2019-05-15T01:20:39.686Z,2.37
2019-05-15T01:23:09.283Z,2.40
2019-05-15T01:25:39.240Z,2.30
2019-05-15T01:28:09.556Z,2.23
2019-05-15T01:30:39.661Z,2.43
2019-05-15T01:33:09.186Z,2.40
2019-05-15T01:35:38.896Z,2.47
2019-05-15T01:38:08.562Z,2.60
2019-05-15T01:40:38.593Z,2.20
2019-05-15T01:43:09.173Z,2.70
2019-05-15T01:45:39.690Z,2.60
2019-05-15T01:48:09.186Z,2.40
2019-05-15T01:50:39.132Z,2.60
2019-05-15T01:53:08.923Z,2.40
2019-05-15T01:55:39.433Z,2.30
2019-05-15T01:58:09.483Z,2.60
2019-05-15T02:00:39.509Z,2.50
2019-05-15T02:03:09.919Z,2.63
2019-05-15T02:05:40.009Z,2.50
2019-05-15T02:08:09.851Z,2.27
2019-05-15T02:10:39.534Z,2.43
2019-05-15T02:13:09.063Z,2.40
2019-05-15T02:15:39.421Z,2.57
2019-05-15T02:18:09.279Z,3.47
2019-05-15T02:20:39.292Z,2.60
2019-05-15T02:23:11.717Z,2.30
2019-05-15T02:25:40.432Z,2.40
2019-05-15T02:28:10.211Z,2.57
2019-05-15T02:30:40.918Z,2.73
2019-05-15T02:33:11.261Z,2.30
2019-05-15T02:35:40.764Z,2.67
2019-05-15T02:38:15.109Z,2.70
2019-05-15T02:40:41.644Z,2.30
2019-05-15T02:43:11.093Z,2.83
2019-05-15T02:45:42.578Z,2.80
2019-05-15T02:48:12.191Z,2.77
2019-05-15T02:50:41.651Z,3.00
2019-05-15T02:53:11.102Z,2.67
2019-05-15T02:55:40.829Z,2.70
2019-05-15T02:58:10.693Z,2.90
2019-05-15T03:00:47.259Z,2.60
2019-05-15T03:03:11.429Z,3.07
2019-05-15T03:05:41.272Z,2.60
2019-05-15T03:08:10.901Z,3.10
2019-05-15T03:10:41.143Z,2.70
2019-05-15T03:13:10.826Z,2.70
2019-05-15T03:15:40.898Z,2.80
2019-05-15T03:18:10.579Z,2.70
2019-05-15T03:20:40.303Z,2.93
2019-05-15T03:23:10.260Z,3.17
2019-05-15T03:25:40.793Z,3.00
2019-05-15T03:28:10.977Z,3.00
2019-05-15T03:31:13.183Z,2.67
2019-05-15T03:33:20.818Z,3.13
2019-05-15T03:35:44.540Z,3.13
2019-05-15T03:38:14.456Z,2.87
2019-05-15T03:40:44.205Z,2.80
2019-05-15T03:43:14.738Z,3.17
2019-05-15T03:45:44.189Z,3.10
2019-05-15T03:48:13.680Z,2.97
2019-05-15T03:50:43.464Z,2.60
2019-05-15T03:53:12.907Z,3.33
2019-05-15T03:55:42.366Z,2.70
2019-05-15T03:58:11.879Z,3.30
2019-05-15T04:00:41.310Z,3.30
2019-05-15T04:03:11.385Z,3.13
2019-05-15T04:05:40.860Z,3.00
2019-05-15T04:08:11.163Z,2.77
2019-05-15T04:10:40.931Z,3.20
2019-05-15T04:13:10.903Z,2.90
2019-05-15T04:15:40.351Z,3.10
2019-05-15T04:18:10.073Z,2.73
2019-05-15T04:20:40.555Z,3.00
2019-05-15T04:23:10.866Z,3.27
2019-05-15T04:25:40.658Z,3.10
2019-05-15T04:28:11.780Z,3.40
2019-05-15T04:30:41.677Z,3.40
2019-05-15T04:33:11.470Z,3.10
2019-05-15T04:35:41.153Z,3.30
2019-05-15T04:38:10.689Z,2.80
2019-05-15T04:40:40.244Z,3.30
2019-05-15T04:43:11.314Z,2.97
2019-05-15T04:45:41.014Z,3.40
2019-05-15T04:48:10.745Z,3.20
2019-05-15T04:50:40.656Z,3.17
2019-05-15T04:53:11.018Z,3.30
2019-05-15T04:55:41.175Z,3.03
2019-05-15T04:58:10.865Z,3.50
2019-05-15T05:00:49.505Z,6.77
2019-05-15T05:03:20.571Z,4.00
2019-05-15T05:05:50.686Z,3.30
2019-05-15T05:08:21.057Z,3.90
2019-05-15T05:10:50.818Z,3.90
2019-05-15T05:13:20.540Z,3.37
2019-05-15T05:15:51.293Z,3.83
2019-05-15T05:18:20.776Z,3.60
2019-05-15T05:20:50.283Z,3.30
2019-05-15T05:23:20.072Z,3.40
2019-05-15T05:25:49.710Z,3.00
2019-05-15T05:28:21.243Z,3.30
2019-05-15T05:30:50.711Z,3.40
2019-05-15T05:33:20.175Z,2.97
2019-05-15T05:35:49.678Z,3.30
2019-05-15T05:38:19.675Z,2.97
2019-05-15T05:40:50.104Z,2.80
2019-05-15T05:43:20.260Z,2.93
2019-05-15T05:45:49.765Z,2.90
2019-05-15T05:48:19.430Z,2.70
2019-05-15T05:50:50.036Z,3.20
2019-05-15T05:53:21.393Z,2.60
2019-05-15T05:55:53.493Z,2.90
2019-05-15T05:58:22.552Z,2.77
2019-05-15T06:00:52.325Z,2.87
2019-05-15T06:03:21.785Z,2.90
2019-05-15T06:05:51.628Z,2.80
2019-05-15T06:08:21.081Z,3.07
2019-05-15T06:10:50.528Z,3.20
2019-05-15T06:13:20.079Z,2.97
2019-05-15T06:15:49.523Z,2.80
2019-05-15T06:18:19.985Z,3.23
2019-05-15T06:20:50.116Z,3.10
2019-05-15T06:23:25.420Z,3.00
2019-05-15T06:25:51.182Z,3.00
2019-05-15T06:28:20.704Z,3.10
2019-05-15T06:30:50.406Z,3.23
2019-05-15T06:33:19.905Z,2.97
2019-05-15T06:35:49.473Z,2.73
2019-05-15T06:38:19.682Z,3.40
2019-05-15T06:40:50.259Z,3.43
2019-05-15T06:43:19.811Z,2.83
2019-05-15T06:45:49.449Z,3.37
2019-05-15T06:48:19.039Z,3.33
2019-05-15T06:50:49.344Z,3.00
2019-05-15T06:53:19.586Z,2.90
2019-05-15T06:55:49.276Z,3.40
2019-05-15T06:58:19.851Z,3.20
2019-05-15T07:00:49.862Z,2.90
2019-05-15T07:03:25.154Z,2.90
2019-05-15T07:05:51.194Z,2.83
2019-05-15T07:08:20.810Z,2.53
2019-05-15T07:10:50.392Z,2.77
2019-05-15T07:13:20.029Z,2.47
2019-05-15T07:15:49.956Z,3.10
2019-05-15T07:18:21.061Z,3.00
2019-05-15T07:20:50.505Z,2.70
2019-05-15T07:23:19.965Z,3.00
2019-05-15T07:25:50.173Z,2.80
2019-05-15T07:28:20.360Z,2.90
2019-05-15T07:30:49.958Z,2.90
2019-05-15T07:33:35.347Z,3.10
2019-05-15T07:35:50.600Z,2.93
2019-05-15T07:38:20.318Z,3.00
2019-05-15T07:40:57.323Z,3.07
2019-05-15T07:43:21.498Z,2.83
2019-05-15T07:45:54.936Z,3.30
2019-05-15T07:48:22.465Z,3.37
2019-05-15T07:50:51.897Z,3.13
2019-05-15T07:53:21.339Z,3.00
2019-05-15T07:55:51.457Z,3.67
2019-05-15T07:58:22.101Z,3.53
2019-05-15T08:00:51.802Z,3.87
2019-05-15T08:03:21.533Z,3.70
2019-05-15T08:05:58.850Z,3.77
2019-05-15T08:08:22.493Z,3.60
2019-05-15T08:10:52.349Z,3.53
2019-05-15T08:13:21.805Z,3.67
2019-05-15T08:15:51.252Z,3.67
2019-05-15T08:18:23.413Z,5.60
2019-05-15T08:20:52.871Z,4.40
2019-05-15T08:23:22.314Z,4.67
2019-05-15T08:25:51.789Z,4.10
2019-05-15T08:28:21.341Z,4.23
2019-05-15T08:30:50.876Z,4.30
2019-05-15T08:33:20.592Z,4.37
2019-05-15T08:35:51.816Z,4.47
2019-05-15T08:38:21.204Z,4.90
2019-05-15T08:40:50.656Z,4.60
2019-05-15T08:43:20.103Z,5.17
2019-05-15T08:45:50.039Z,4.00
2019-05-15T08:48:19.591Z,4.77
2019-05-15T08:50:49.210Z,4.43
2019-05-15T08:53:19.621Z,5.30
2019-05-15T08:55:49.533Z,4.90
2019-05-15T08:58:20.762Z,4.27
2019-05-15T09:00:52.252Z,4.93
2019-05-15T09:03:21.466Z,6.50
2019-05-15T09:05:50.917Z,5.47
2019-05-15T09:08:20.373Z,5.00
2019-05-15T09:10:50.649Z,4.90
2019-05-15T09:13:20.105Z,5.40
2019-05-15T09:15:49.731Z,5.80
2019-05-15T09:18:20.113Z,5.20
2019-05-15T09:20:49.814Z,5.00
2019-05-15T09:23:19.886Z,5.43
2019-05-15T09:25:49.959Z,5.97
2019-05-15T09:28:19.745Z,5.17
2019-05-15T09:30:49.915Z,4.97
2019-05-15T09:33:20.272Z,4.87
2019-05-15T09:35:49.878Z,5.17
2019-05-15T09:38:19.328Z,5.30
2019-05-15T09:40:50.834Z,5.73
2019-05-15T09:43:19.930Z,5.70
2019-05-15T09:45:49.642Z,5.90
2019-05-15T09:48:20.927Z,6.30
2019-05-15T09:50:50.399Z,6.13
2019-05-15T09:53:19.854Z,5.57
2019-05-15T09:55:49.956Z,6.13
2019-05-15T09:58:20.948Z,5.23
2019-05-15T10:00:53.000Z,5.47
2019-05-15T10:03:22.330Z,5.10
2019-05-15T10:05:51.787Z,5.40
2019-05-15T10:08:21.771Z,5.10
2019-05-15T10:10:51.393Z,4.60
2019-05-15T10:13:20.826Z,4.90
2019-05-15T10:15:51.252Z,5.73
2019-05-15T10:18:20.773Z,4.77
2019-05-15T10:20:50.229Z,4.73
2019-05-15T10:23:20.079Z,4.97
2019-05-15T10:25:49.615Z,5.20
2019-05-15T10:28:19.626Z,4.70
2019-05-15T10:30:50.026Z,5.13
2019-05-15T10:33:20.458Z,4.47
2019-05-15T10:35:50.479Z,4.60
2019-05-15T10:38:20.396Z,4.43
2019-05-15T10:41:03.908Z,5.00
2019-05-15T10:43:21.226Z,6.10
2019-05-15T10:45:54.182Z,5.83
2019-05-15T10:48:21.800Z,5.33
2019-05-15T10:50:51.614Z,6.50
2019-05-15T10:53:21.528Z,5.40
2019-05-15T10:55:50.958Z,6.20
2019-05-15T10:58:22.149Z,5.20
2019-05-15T11:00:52.002Z,4.80
2019-05-15T11:03:21.452Z,4.70
2019-05-15T11:05:50.906Z,5.17
2019-05-15T11:08:20.359Z,4.53
2019-05-15T11:10:50.106Z,5.10
2019-05-15T11:13:19.701Z,5.90
2019-05-15T11:15:50.121Z,5.60
2019-05-15T11:18:22.155Z,5.43
2019-05-15T11:20:50.986Z,5.87
2019-05-15T11:23:20.596Z,5.20
2019-05-15T11:25:50.005Z,5.80
2019-05-15T11:28:19.525Z,6.33
2019-05-15T11:30:49.416Z,6.70
2019-05-15T11:33:19.370Z,6.67
2019-05-15T11:36:00.961Z,6.93
2019-05-15T11:38:20.248Z,6.10
2019-05-15T11:40:49.694Z,5.37
2019-05-15T11:43:19.910Z,6.13
2019-05-15T11:45:49.500Z,7.43
2019-05-15T11:48:20.465Z,12.17
2019-05-15T11:50:50.316Z,8.57
2019-05-15T11:53:19.774Z,8.60
2019-05-15T11:55:49.228Z,7.60
2019-05-15T11:58:25.392Z,6.87
2019-05-15T12:00:49.829Z,7.17
2019-05-15T12:03:19.395Z,6.97
2019-05-15T12:05:48.826Z,7.13
2019-05-15T12:08:19.959Z,6.97
2019-05-15T12:10:49.668Z,7.60
2019-05-15T12:13:19.282Z,7.73
2019-05-15T12:15:48.882Z,7.60
2019-05-15T12:18:18.321Z,10.10
2019-05-15T12:20:48.640Z,7.10
2019-05-15T12:23:18.477Z,6.67
2019-05-15T12:25:48.845Z,6.70
2019-05-15T12:28:19.907Z,6.77
2019-05-15T12:30:49.408Z,6.83
2019-05-15T12:33:19.022Z,6.87
2019-05-15T12:35:50.732Z,6.63
2019-05-15T12:38:20.898Z,8.90
2019-05-15T13:01:00.032Z,7.93
2019-05-15T13:03:29.568Z,7.20
2019-05-15T13:05:59.027Z,7.03
2019-05-15T13:08:29.252Z,7.53
2019-05-15T13:10:58.976Z,7.23
2019-05-15T13:13:28.572Z,7.20
2019-05-15T13:15:59.045Z,8.20
2019-05-15T13:18:28.842Z,7.77
2019-05-15T13:20:59.417Z,7.10
2019-05-15T13:23:29.254Z,7.73
2019-05-15T13:25:59.413Z,7.50
2019-05-15T13:28:29.383Z,7.40
2019-05-15T13:30:59.675Z,8.40
2019-05-15T13:33:29.254Z,7.70
2019-05-15T13:35:58.744Z,8.23
2019-05-15T13:38:28.861Z,8.10
2019-05-15T13:40:59.083Z,7.57
2019-05-15T13:43:29.174Z,7.83
2019-05-15T13:45:59.524Z,8.20
2019-05-15T13:48:29.776Z,8.13
2019-05-15T13:50:59.463Z,7.87
2019-05-15T13:53:29.281Z,8.20
2019-05-15T13:55:58.733Z,8.47
2019-05-15T13:58:28.499Z,9.27
2019-05-15T14:00:58.806Z,8.53
2019-05-15T14:03:28.828Z,8.33
2019-05-15T14:05:58.666Z,8.20
2019-05-15T14:08:28.770Z,8.10
2019-05-15T14:10:58.604Z,7.70
2019-05-15T14:13:28.694Z,7.17
2019-05-15T14:15:58.531Z,6.80
2019-05-15T14:18:28.663Z,7.80
2019-05-15T14:20:58.683Z,7.50
2019-05-15T14:23:29.461Z,8.17
2019-05-15T14:26:13.048Z,6.73
2019-05-15T14:28:30.274Z,7.10
2019-05-15T14:31:00.097Z,6.97
2019-05-15T14:33:29.884Z,7.10
2019-05-15T14:35:59.351Z,7.10
2019-05-15T14:38:29.178Z,7.93
2019-05-15T14:40:59.191Z,8.73
2019-05-15T14:43:29.453Z,7.57
2019-05-15T14:45:59.253Z,7.20
2019-05-15T14:48:28.695Z,7.67
2019-05-15T14:50:58.571Z,8.10
2019-05-15T14:53:29.373Z,8.00
2019-05-15T14:56:00.295Z,7.17
2019-05-15T14:58:30.101Z,8.03
2019-05-15T15:01:03.270Z,7.77
2019-05-15T15:03:30.712Z,7.60
2019-05-15T15:06:00.175Z,7.97
2019-05-15T15:08:32.469Z,7.47
2019-05-15T15:11:00.788Z,8.00
2019-05-15T15:13:30.913Z,8.10
2019-05-15T15:16:00.395Z,10.93
2019-05-15T15:18:29.842Z,9.03
2019-05-15T15:20:59.303Z,9.73
2019-05-15T15:23:28.743Z,9.83
2019-05-15T15:25:58.482Z,9.50
2019-05-15T15:28:28.207Z,9.57
2019-05-15T15:30:58.249Z,9.67
2019-05-15T15:33:28.892Z,9.90
2019-05-15T15:35:58.543Z,9.40
2019-05-15T15:38:40.068Z,11.10
2019-05-15T15:41:00.447Z,9.30
2019-05-15T15:43:30.163Z,9.30
2019-05-15T15:45:59.903Z,8.93
2019-05-15T15:48:29.392Z,9.40
2019-05-15T15:50:58.952Z,8.30
2019-05-15T15:53:28.816Z,9.20
2019-05-15T15:55:58.685Z,9.20
2019-05-15T15:58:29.103Z,9.10
2019-05-15T16:00:58.613Z,9.23
2019-05-15T16:03:28.785Z,8.87
2019-05-15T16:05:58.337Z,10.07
2019-05-15T16:08:28.590Z,9.43
2019-05-15T16:10:58.951Z,9.33
2019-05-15T16:13:29.190Z,8.00
2019-05-15T16:15:59.090Z,8.73
2019-05-15T16:18:29.074Z,9.73
2019-05-15T16:20:58.630Z,11.53
2019-05-15T16:23:28.466Z,12.47
2019-05-15T16:26:01.005Z,10.43
2019-05-15T16:28:29.716Z,9.67
2019-05-15T16:30:59.212Z,8.80
2019-05-15T16:33:28.729Z,9.80
2019-05-15T16:35:58.657Z,9.43
2019-05-15T16:38:28.519Z,9.50
2019-05-15T16:40:58.495Z,9.43
2019-05-15T16:43:28.792Z,9.00
2019-05-15T16:45:58.945Z,8.70
2019-05-15T16:48:29.508Z,9.33
2019-05-15T16:50:59.098Z,9.30
2019-05-15T16:53:29.077Z,8.67
2019-05-15T16:55:58.848Z,8.63
2019-05-15T16:58:29.628Z,9.23
2019-05-15T17:00:59.445Z,9.30
2019-05-15T17:03:29.135Z,9.87
2019-05-15T17:05:58.929Z,8.47
2019-05-15T17:08:32.054Z,9.13
2019-05-15T17:11:00.172Z,8.70
2019-05-15T17:13:29.632Z,8.97
2019-05-15T17:15:59.094Z,9.20
2019-05-15T17:18:28.548Z,8.20
2019-05-15T17:20:59.016Z,9.20
2019-05-15T17:23:28.901Z,9.13
2019-05-15T17:25:58.617Z,9.13
2019-05-15T17:28:28.979Z,10.03
2019-05-15T17:30:58.913Z,9.43
2019-05-15T17:33:29.056Z,9.90
2019-05-15T17:35:58.541Z,10.53
2019-05-15T17:38:28.676Z,10.93
2019-05-15T17:40:58.496Z,10.77
2019-05-15T17:43:28.721Z,11.73
2019-05-15T17:45:58.628Z,11.13
2019-05-15T17:48:28.952Z,11.27
2019-05-15T17:50:59.469Z,10.87
2019-05-15T17:53:29.586Z,11.50
2019-05-15T17:55:59.335Z,11.03
2019-05-15T17:58:28.987Z,10.43
2019-05-15T18:00:59.427Z,11.17
2019-05-15T18:03:29.553Z,10.03
2019-05-15T18:05:59.379Z,9.53
2019-05-15T18:08:29.253Z,10.47
2019-05-15T18:10:59.232Z,10.37
2019-05-15T18:13:28.917Z,10.43
2019-05-15T18:16:03.241Z,10.70
2019-05-15T18:18:29.609Z,11.63
2019-05-15T18:20:59.067Z,10.77
2019-05-15T18:23:28.536Z,10.33
2019-05-15T18:25:58.668Z,11.00
2019-05-15T18:28:28.131Z,10.77
2019-05-15T18:30:58.783Z,11.27
2019-05-15T18:33:28.416Z,11.17
2019-05-15T18:35:58.275Z,11.80
2019-05-15T18:38:28.237Z,13.37
2019-05-15T18:40:58.398Z,12.53
2019-05-15T18:43:28.424Z,12.57
2019-05-15T18:45:58.599Z,12.47
2019-05-15T18:48:28.837Z,13.77
2019-05-15T18:50:58.912Z,13.77
2019-05-15T18:53:28.537Z,13.63
2019-05-15T18:55:58.512Z,13.10
2019-05-15T18:58:28.156Z,15.43
2019-05-15T19:00:58.372Z,15.70
2019-05-15T19:03:28.102Z,14.60
2019-05-15T19:05:58.479Z,14.03
2019-05-15T19:08:28.356Z,14.60
2019-05-15T19:10:58.613Z,14.50
2019-05-15T19:13:28.404Z,15.90
2019-05-15T19:15:58.213Z,15.20
2019-05-15T19:18:28.023Z,13.13
2019-05-15T19:20:58.615Z,12.13
2019-05-15T19:23:28.599Z,12.87
2019-05-15T19:25:58.411Z,12.90
2019-05-15T19:28:28.521Z,13.40
2019-05-15T19:30:58.732Z,13.77
2019-05-15T19:33:37.092Z,15.87
2019-05-15T19:36:02.122Z,13.30
2019-05-15T19:38:30.795Z,12.50
2019-05-15T19:41:02.966Z,13.57
2019-05-15T19:43:32.148Z,11.73
2019-05-15T19:46:01.615Z,11.80
2019-05-15T19:48:31.179Z,12.27
2019-05-15T19:51:00.647Z,11.97
2019-05-15T19:53:30.559Z,12.60
2019-05-15T19:56:00.487Z,11.93
2019-05-15T19:58:30.132Z,12.27
2019-05-15T20:00:59.942Z,12.17
2019-05-15T20:03:29.549Z,11.07
2019-05-15T20:06:01.399Z,11.00
2019-05-15T20:08:30.194Z,9.97
2019-05-15T20:10:59.642Z,12.33
2019-05-15T20:13:29.601Z,10.50
2019-05-15T20:15:59.032Z,12.07
2019-05-15T20:18:28.500Z,12.33
2019-05-15T20:20:58.490Z,12.23
2019-05-15T20:23:28.860Z,12.60
2019-05-15T20:25:58.499Z,11.40
2019-05-15T20:28:28.580Z,11.90
2019-05-15T20:30:58.927Z,10.80
2019-05-15T20:33:28.701Z,11.03
2019-05-15T20:35:58.860Z,10.77
2019-05-15T20:38:28.850Z,9.57
2019-05-15T20:40:59.754Z,9.90
2019-05-15T20:43:29.460Z,10.30
2019-05-15T20:45:59.295Z,9.63
2019-05-15T20:48:29.079Z,9.80
2019-05-15T20:50:59.101Z,9.90
2019-05-15T20:53:28.865Z,10.27
2019-05-15T20:55:59.005Z,10.03
2019-05-15T20:58:28.570Z,9.97
2019-05-15T21:00:59.156Z,9.83
2019-05-15T21:03:28.820Z,10.57
2019-05-15T21:06:00.756Z,9.60
2019-05-15T21:08:29.772Z,9.67
2019-05-15T21:10:59.320Z,9.27
2019-05-15T21:13:29.892Z,9.87
2019-05-15T21:15:59.456Z,10.20
2019-05-15T21:18:29.249Z,10.13
2019-05-15T21:20:58.725Z,9.33
2019-05-15T21:23:28.639Z,10.00
2019-05-15T21:25:59.047Z,9.57
2019-05-15T21:28:30.102Z,9.97
2019-05-15T21:30:59.658Z,8.50
2019-05-15T21:33:29.787Z,9.90
2019-05-15T21:35:59.307Z,9.93
2019-05-15T21:38:28.774Z,9.50
2019-05-15T21:40:58.726Z,10.30
2019-05-15T21:43:28.328Z,10.40
2019-05-15T21:45:59.122Z,11.07
2019-05-15T21:48:28.934Z,10.20
2019-05-15T21:50:58.608Z,9.93
2019-05-15T21:53:28.844Z,9.80
2019-05-15T21:55:59.000Z,10.20
2019-05-15T21:58:28.619Z,9.23
2019-05-15T22:01:19.613Z,9.00
2019-05-15T22:03:49.421Z,8.53
2019-05-15T22:06:18.878Z,9.13
2019-05-15T22:08:48.328Z,8.50
2019-05-15T22:11:18.746Z,8.57
2019-05-15T22:13:49.307Z,7.90
2019-05-15T22:16:19.250Z,7.33
2019-05-15T22:18:48.934Z,8.10
2019-05-15T22:21:18.716Z,7.23
2019-05-15T22:23:48.229Z,7.07
2019-05-15T22:26:18.502Z,7.23
2019-05-15T22:28:49.101Z,8.07
2019-05-15T22:31:18.541Z,6.37
2019-05-15T22:33:48.356Z,6.80
2019-05-15T22:36:18.849Z,6.50
2019-05-15T22:38:50.389Z,7.30
2019-05-15T22:41:19.904Z,7.30
2019-05-15T22:43:49.403Z,6.53
2019-05-15T22:46:18.877Z,7.10
2019-05-15T22:48:48.716Z,6.87
2019-05-15T22:51:18.548Z,7.00
2019-05-15T22:53:48.879Z,6.63
2019-05-15T22:56:18.515Z,7.33
2019-05-15T22:58:48.181Z,7.43
2019-05-15T23:01:18.836Z,6.70
2019-05-15T23:03:48.557Z,7.40
2019-05-15T23:06:18.195Z,7.07
2019-05-15T23:08:48.948Z,7.20
2019-05-15T23:11:18.881Z,7.30
2019-05-15T23:13:48.693Z,7.83
2019-05-15T23:16:18.768Z,7.30
2019-05-15T23:18:48.833Z,6.80
2019-05-15T23:21:19.081Z,8.07
2019-05-15T23:23:48.962Z,6.70
2019-05-15T23:26:18.417Z,6.63
2019-05-15T23:28:48.210Z,6.87
2019-05-15T23:31:18.858Z,6.43
2019-05-15T23:33:48.716Z,5.67
2019-05-15T23:36:18.669Z,6.50
2019-05-15T23:38:48.463Z,6.53
2019-05-15T23:41:18.892Z,6.93
2019-05-15T23:43:48.542Z,6.73
2019-05-15T23:46:18.592Z,6.57
2019-05-15T23:48:48.636Z,5.87
2019-05-15T23:51:19.141Z,6.70
2019-05-15T23:53:48.650Z,7.03
2019-05-15T23:56:19.007Z,6.87
2019-05-15T23:58:48.673Z,6.57
